createdAt,value
2019-03-26T00:00:24.960Z,23.80
2019-03-26T00:02:51.084Z,18.55
2019-03-26T00:05:17.309Z,15.53
2019-03-26T00:07:43.467Z,16.25
2019-03-26T00:10:09.812Z,16.37
2019-03-26T00:12:35.943Z,18.07
2019-03-26T00:15:03.162Z,17.55
2019-03-26T00:17:29.440Z,16.42
2019-03-26T00:19:55.685Z,20.45
2019-03-26T00:22:21.937Z,21.37
2019-03-26T00:24:48.182Z,20.20
2019-03-26T00:27:14.531Z,21.17
2019-03-26T00:29:40.777Z,21.37
2019-03-26T00:32:06.971Z,22.07
2019-03-26T00:34:33.378Z,23.52
2019-03-26T00:36:59.616Z,19.87
2019-03-26T00:39:25.791Z,20.97
2019-03-26T00:41:52.004Z,22.35
2019-03-26T00:44:18.399Z,22.15
2019-03-26T00:46:44.653Z,25.95
2019-03-26T00:49:10.836Z,25.48
2019-03-26T00:51:37.044Z,27.58
2019-03-26T00:54:03.231Z,25.05
2019-03-26T00:56:29.392Z,22.60
2019-03-26T00:58:55.651Z,24.45
2019-03-26T01:01:21.795Z,28.75
2019-03-26T01:03:48.065Z,32.90
2019-03-26T01:06:14.374Z,29.95
2019-03-26T01:08:40.607Z,32.60
2019-03-26T01:11:06.820Z,27.70
2019-03-26T01:13:33.045Z,34.48
2019-03-26T01:15:59.155Z,33.75
2019-03-26T01:18:25.419Z,30.88
2019-03-26T01:20:51.655Z,29.50
2019-03-26T01:23:17.996Z,28.25
2019-03-26T01:25:44.135Z,26.48
2019-03-26T01:28:10.403Z,28.25
2019-03-26T01:30:36.578Z,24.55
2019-03-26T01:33:03.006Z,31.20
2019-03-26T01:35:29.187Z,31.27
2019-03-26T01:37:55.419Z,25.12
2019-03-26T01:40:21.518Z,26.50
2019-03-26T01:42:47.806Z,24.67
2019-03-26T01:45:14.164Z,25.10
2019-03-26T01:47:40.414Z,28.02
2019-03-26T01:50:07.222Z,33.25
2019-03-26T01:52:34.494Z,30.20
2019-03-26T01:55:00.693Z,33.08
2019-03-26T01:57:26.908Z,34.55
2019-03-26T01:59:53.086Z,28.10
2019-03-26T02:02:19.354Z,28.67
2019-03-26T02:04:58.879Z,29.12
2019-03-26T02:07:13.606Z,27.02
2019-03-26T02:09:39.780Z,29.95
2019-03-26T02:12:05.945Z,27.58
2019-03-26T02:14:32.111Z,26.85
2019-03-26T02:16:58.522Z,29.18
2019-03-26T02:19:24.700Z,27.67
2019-03-26T02:21:51.054Z,29.87
2019-03-26T02:24:17.159Z,29.98
2019-03-26T02:26:43.433Z,28.20
2019-03-26T02:29:09.548Z,25.75
2019-03-26T02:31:35.761Z,30.85
2019-03-26T02:34:01.892Z,29.50
2019-03-26T02:36:28.126Z,27.52
2019-03-26T02:38:54.392Z,29.55
2019-03-26T02:41:20.777Z,29.05
2019-03-26T02:43:47.136Z,28.05
2019-03-26T02:46:13.405Z,24.63
2019-03-26T02:48:39.547Z,26.73
2019-03-26T02:51:05.885Z,26.30
2019-03-26T02:53:32.194Z,26.00
2019-03-26T02:55:58.713Z,23.85
2019-03-26T02:58:24.911Z,24.70
2019-03-26T03:00:51.178Z,27.58
2019-03-26T03:03:17.582Z,24.77
2019-03-26T03:05:43.790Z,29.98
2019-03-26T03:08:10.047Z,24.77
2019-03-26T03:10:36.314Z,23.67
2019-03-26T03:13:02.763Z,26.57
2019-03-26T03:15:28.868Z,27.17
2019-03-26T03:17:55.356Z,21.95
2019-03-26T03:20:21.675Z,27.58
2019-03-26T03:22:47.914Z,31.35
2019-03-26T03:25:15.120Z,24.50
2019-03-26T03:27:41.453Z,30.57
2019-03-26T03:30:08.427Z,27.27
2019-03-26T03:32:34.707Z,27.90
2019-03-26T03:35:00.957Z,28.95
2019-03-26T03:37:27.268Z,22.27
2019-03-26T03:39:53.571Z,23.50
2019-03-26T03:42:19.940Z,25.70
2019-03-26T03:44:46.191Z,36.45
2019-03-26T03:47:13.508Z,29.72
2019-03-26T03:49:40.211Z,31.50
2019-03-26T03:52:07.623Z,29.23
2019-03-26T03:54:37.626Z,33.60
2019-03-26T03:57:05.339Z,35.50
2019-03-26T03:59:32.387Z,28.77
2019-03-26T04:01:58.829Z,29.52
2019-03-26T04:04:25.137Z,29.37
2019-03-26T04:06:51.440Z,30.12
2019-03-26T04:09:17.719Z,32.70
2019-03-26T04:11:45.341Z,28.57
2019-03-26T04:14:11.586Z,32.42
2019-03-26T04:16:37.870Z,29.67
2019-03-26T04:19:03.998Z,33.33
2019-03-26T04:21:30.274Z,30.32
2019-03-26T04:23:56.377Z,35.13
2019-03-26T04:26:22.614Z,31.50
2019-03-26T04:28:49.442Z,29.77
2019-03-26T04:31:15.851Z,33.10
2019-03-26T04:33:42.109Z,35.20
2019-03-26T04:36:24.214Z,30.95
2019-03-26T04:38:36.748Z,33.18
2019-03-26T04:41:03.073Z,29.45
2019-03-26T04:43:29.304Z,34.27
2019-03-26T04:45:56.477Z,30.32
2019-03-26T04:48:22.759Z,31.90
2019-03-26T04:50:48.924Z,30.85
2019-03-26T04:53:15.228Z,31.90
2019-03-26T04:55:41.548Z,35.33
2019-03-26T04:58:07.790Z,38.75
2019-03-26T05:00:33.953Z,36.45
2019-03-26T05:03:00.209Z,32.40
2019-03-26T05:05:26.478Z,33.85
2019-03-26T05:07:52.933Z,33.13
2019-03-26T05:10:19.115Z,33.40
2019-03-26T05:12:45.297Z,32.23
2019-03-26T05:15:11.581Z,28.05
2019-03-26T05:17:37.766Z,34.67
2019-03-26T05:20:05.963Z,34.63
2019-03-26T05:22:32.262Z,30.30
2019-03-26T05:24:58.673Z,30.00
2019-03-26T05:27:24.802Z,28.62
2019-03-26T05:29:52.136Z,28.30
2019-03-26T05:32:18.404Z,29.20
2019-03-26T05:34:44.615Z,25.88
2019-03-26T05:37:10.942Z,26.68
2019-03-26T05:39:37.600Z,25.43
2019-03-26T05:42:03.891Z,26.85
2019-03-26T05:44:30.147Z,23.90
2019-03-26T05:46:56.420Z,24.52
2019-03-26T05:49:23.011Z,21.70
2019-03-26T05:51:49.359Z,22.13
2019-03-26T05:54:15.514Z,23.20
2019-03-26T05:56:41.715Z,18.12
2019-03-26T05:59:07.822Z,23.62
2019-03-26T06:01:34.057Z,21.95
2019-03-26T06:04:00.166Z,18.87
2019-03-26T06:06:26.368Z,23.62
2019-03-26T06:08:52.456Z,20.35
2019-03-26T06:11:18.642Z,19.65
2019-03-26T06:13:44.813Z,20.55
2019-03-26T06:16:11.020Z,18.73
2019-03-26T06:18:37.271Z,18.90
2019-03-26T06:21:03.541Z,22.02
2019-03-26T06:23:29.754Z,20.72
2019-03-26T06:25:55.984Z,22.37
2019-03-26T06:28:22.066Z,21.57
2019-03-26T06:30:48.589Z,21.45
2019-03-26T06:33:14.742Z,24.90
2019-03-26T06:35:40.980Z,17.67
2019-03-26T06:38:07.067Z,19.67
2019-03-26T06:40:33.285Z,21.45
2019-03-26T06:42:59.450Z,27.55
2019-03-26T06:45:25.639Z,22.35
2019-03-26T06:47:51.801Z,20.88
2019-03-26T06:50:18.197Z,20.82
2019-03-26T06:52:44.477Z,22.65
2019-03-26T06:55:11.322Z,20.12
2019-03-26T06:57:40.409Z,22.48
2019-03-26T07:00:09.081Z,20.72
2019-03-26T07:02:35.731Z,19.35
2019-03-26T07:05:02.204Z,22.65
2019-03-26T07:07:31.692Z,21.30
2019-03-26T07:09:57.418Z,21.50
2019-03-26T07:12:23.573Z,22.48
2019-03-26T07:14:49.809Z,22.90
2019-03-26T07:17:15.936Z,26.02
2019-03-26T07:19:42.204Z,24.07
2019-03-26T07:22:08.522Z,22.13
2019-03-26T07:24:34.771Z,25.30
2019-03-26T07:27:01.057Z,26.20
2019-03-26T07:29:27.396Z,23.98
2019-03-26T07:31:53.483Z,24.40
2019-03-26T07:34:19.757Z,21.12
2019-03-26T07:36:45.863Z,25.12
2019-03-26T07:39:12.107Z,25.27
2019-03-26T07:41:38.585Z,25.77
2019-03-26T07:44:04.952Z,24.18
2019-03-26T07:46:31.111Z,26.30
2019-03-26T07:48:57.290Z,25.35
2019-03-26T07:51:23.454Z,21.68
2019-03-26T07:53:49.699Z,23.22
2019-03-26T07:56:15.826Z,22.30
2019-03-26T07:58:42.143Z,26.23
2019-03-26T08:01:10.090Z,25.82
2019-03-26T08:03:36.489Z,22.32
2019-03-26T08:06:02.808Z,23.47
2019-03-26T08:08:28.995Z,23.67
2019-03-26T08:10:55.257Z,24.47
2019-03-26T08:13:21.560Z,24.30
2019-03-26T08:15:47.846Z,26.90
2019-03-26T08:18:14.118Z,26.40
2019-03-26T08:20:40.251Z,25.10
2019-03-26T08:23:06.504Z,23.15
2019-03-26T08:25:34.010Z,22.22
2019-03-26T08:28:00.709Z,22.37
2019-03-26T08:30:26.816Z,21.35
2019-03-26T08:32:53.088Z,25.70
2019-03-26T08:35:19.196Z,16.82
2019-03-26T08:37:45.409Z,18.42
2019-03-26T08:40:11.816Z,20.43
2019-03-26T08:42:38.061Z,20.92
2019-03-26T08:45:06.588Z,17.73
2019-03-26T08:47:32.754Z,21.27
2019-03-26T08:49:59.211Z,24.52
2019-03-26T08:52:25.574Z,24.40
2019-03-26T08:54:51.970Z,22.07
2019-03-26T08:57:18.220Z,20.35
2019-03-26T08:59:44.457Z,19.52
2019-03-26T09:02:10.569Z,18.77
2019-03-26T09:04:37.907Z,18.07
2019-03-26T09:07:04.153Z,17.67
2019-03-26T09:09:30.441Z,20.35
2019-03-26T09:11:57.732Z,14.75
2019-03-26T09:14:24.225Z,18.07
2019-03-26T09:16:50.424Z,16.95
2019-03-26T09:19:16.673Z,18.32
2019-03-26T09:21:42.952Z,20.95
2019-03-26T09:24:09.184Z,17.77
2019-03-26T09:26:35.295Z,17.17
2019-03-26T09:29:01.539Z,14.50
2019-03-26T09:31:27.791Z,15.98
2019-03-26T09:33:54.062Z,15.78
2019-03-26T09:36:20.213Z,18.67
2019-03-26T09:38:46.423Z,15.00
2019-03-26T09:41:12.693Z,17.20
2019-03-26T09:43:38.866Z,16.20
2019-03-26T09:46:05.025Z,14.90
2019-03-26T09:48:31.251Z,16.05
2019-03-26T09:50:57.410Z,16.10
2019-03-26T09:53:23.745Z,13.55
2019-03-26T09:55:50.059Z,16.12
2019-03-26T09:58:16.319Z,17.75
2019-03-26T10:00:42.541Z,16.70
2019-03-26T10:03:08.967Z,16.17
2019-03-26T10:05:35.198Z,16.02
2019-03-26T10:08:01.542Z,15.65
2019-03-26T10:10:27.656Z,14.00
2019-03-26T10:12:53.987Z,17.77
2019-03-26T10:15:20.183Z,18.55
2019-03-26T10:17:46.373Z,16.15
2019-03-26T10:20:13.826Z,16.85
2019-03-26T10:22:40.256Z,15.95
2019-03-26T10:25:10.681Z,16.12
2019-03-26T10:27:35.474Z,16.62
2019-03-26T10:30:05.797Z,17.90
2019-03-26T10:32:31.891Z,11.20
2019-03-26T10:34:58.203Z,11.40
2019-03-26T10:37:24.779Z,14.35
2019-03-26T10:39:50.923Z,11.22
2019-03-26T10:42:17.169Z,15.95
2019-03-26T10:44:43.255Z,14.23
2019-03-26T10:47:09.533Z,15.65
2019-03-26T10:49:35.676Z,13.72
2019-03-26T10:52:02.006Z,13.05
2019-03-26T10:54:28.193Z,12.07
2019-03-26T10:56:54.362Z,11.25
2019-03-26T10:59:20.540Z,13.05
2019-03-26T11:01:46.942Z,14.13
2019-03-26T11:04:13.279Z,11.85
2019-03-26T11:06:39.878Z,11.22
2019-03-26T11:09:20.090Z,12.47
2019-03-26T11:11:34.433Z,9.73
2019-03-26T11:14:00.657Z,9.43
2019-03-26T11:16:27.081Z,16.10
2019-03-26T11:18:53.303Z,12.45
2019-03-26T11:21:19.419Z,8.78
2019-03-26T11:23:45.610Z,13.22
2019-03-26T11:26:11.930Z,13.70
2019-03-26T11:28:38.207Z,8.55
2019-03-26T11:31:04.748Z,10.03
2019-03-26T11:33:30.941Z,10.68
2019-03-26T11:35:57.195Z,9.20
2019-03-26T11:38:23.485Z,9.13
2019-03-26T11:40:49.821Z,10.00
2019-03-26T11:43:16.183Z,10.08
2019-03-26T11:45:42.551Z,8.45
2019-03-26T11:48:08.827Z,6.90
2019-03-26T11:50:35.047Z,5.75
2019-03-26T11:53:01.401Z,5.58
2019-03-26T11:55:27.554Z,7.25
2019-03-26T11:57:53.767Z,8.68
2019-03-26T12:00:22.453Z,21.80
2019-03-26T12:02:48.763Z,8.28
2019-03-26T12:05:15.420Z,6.67
2019-03-26T12:07:42.991Z,8.18
2019-03-26T12:10:09.879Z,6.97
2019-03-26T12:12:36.093Z,13.75
2019-03-26T12:15:04.823Z,14.75
2019-03-26T12:17:31.005Z,8.13
2019-03-26T12:19:57.305Z,11.10
2019-03-26T12:22:23.589Z,12.18
2019-03-26T12:24:49.832Z,10.82
2019-03-26T12:27:15.956Z,7.33
2019-03-26T12:29:42.190Z,11.12
2019-03-26T12:32:08.294Z,8.68
2019-03-26T12:34:34.519Z,11.73
2019-03-26T12:37:00.694Z,11.33
2019-03-26T12:39:26.989Z,10.93
2019-03-26T12:41:53.215Z,11.38
2019-03-26T12:44:19.309Z,7.75
2019-03-26T12:46:45.499Z,17.00
2019-03-26T12:49:11.729Z,11.20
2019-03-26T12:51:39.557Z,8.23
2019-03-26T12:54:05.926Z,7.40
2019-03-26T12:56:32.187Z,10.13
2019-03-26T12:58:58.568Z,11.70
2019-03-26T13:01:24.899Z,9.93
2019-03-26T13:03:51.216Z,9.28
2019-03-26T13:06:17.633Z,12.55
2019-03-26T13:08:43.768Z,12.70
2019-03-26T13:11:10.100Z,9.80
2019-03-26T13:13:36.411Z,13.95
2019-03-26T13:16:02.794Z,6.62
2019-03-26T13:21:28.341Z,6.58
2019-03-26T13:23:55.628Z,6.10
2019-03-26T13:26:21.806Z,9.03
2019-03-26T13:28:47.985Z,5.67
2019-03-26T13:31:14.427Z,8.13
2019-03-26T13:33:40.527Z,8.55
2019-03-26T13:36:06.931Z,6.62
2019-03-26T13:38:33.084Z,10.03
2019-03-26T13:40:59.512Z,11.78
2019-03-26T13:43:25.683Z,8.23
2019-03-26T13:45:51.875Z,9.20
2019-03-26T13:48:17.990Z,11.38
2019-03-26T13:50:44.179Z,5.87
2019-03-26T13:53:10.278Z,11.38
2019-03-26T13:55:36.573Z,14.87
2019-03-26T13:58:02.997Z,11.15
2019-03-26T14:00:35.411Z,10.48
2019-03-26T14:03:01.825Z,11.55
2019-03-26T14:05:28.300Z,14.75
2019-03-26T14:07:54.662Z,5.22
2019-03-26T14:10:20.861Z,5.20
2019-03-26T14:12:47.228Z,4.87
2019-03-26T14:15:13.334Z,7.10
2019-03-26T14:17:39.572Z,9.38
2019-03-26T14:20:05.771Z,6.45
2019-03-26T14:22:32.009Z,7.25
2019-03-26T14:24:58.220Z,6.35
2019-03-26T14:27:25.782Z,7.37
2019-03-26T14:29:51.949Z,10.20
2019-03-26T14:32:18.376Z,120.47
2019-03-26T14:34:48.172Z,9.18
2019-03-26T14:37:12.657Z,5.92
2019-03-26T14:39:40.377Z,4.33
2019-03-26T14:42:06.539Z,6.95
2019-03-26T14:44:32.811Z,12.82
2019-03-26T14:46:59.216Z,7.83
2019-03-26T14:49:25.432Z,8.60
2019-03-26T14:51:51.516Z,6.67
2019-03-26T14:54:17.723Z,9.25
2019-03-26T14:56:43.830Z,9.63
2019-03-26T14:59:10.056Z,7.55
2019-03-26T15:01:36.222Z,10.72
2019-03-26T15:04:02.742Z,7.70
2019-03-26T15:06:29.014Z,8.63
2019-03-26T15:08:55.295Z,8.88
2019-03-26T15:11:21.592Z,11.83
2019-03-26T15:13:49.445Z,9.93
2019-03-26T15:16:17.290Z,8.00
2019-03-26T15:18:43.472Z,9.20
2019-03-26T15:21:09.754Z,11.05
2019-03-26T15:23:35.930Z,11.73
2019-03-26T15:26:02.266Z,7.17
2019-03-26T15:28:28.368Z,11.22
2019-03-26T15:30:54.618Z,8.50
2019-03-26T15:33:20.728Z,11.40
2019-03-26T15:35:46.968Z,9.05
2019-03-26T15:38:13.088Z,14.13
2019-03-26T15:40:39.309Z,13.65
2019-03-26T15:43:05.470Z,7.53
2019-03-26T15:45:31.671Z,11.08
2019-03-26T15:47:57.860Z,10.85
2019-03-26T15:50:42.051Z,11.12
2019-03-26T15:53:08.551Z,6.65
2019-03-26T15:55:34.786Z,8.48
2019-03-26T15:58:00.997Z,11.28
2019-03-26T16:00:30.371Z,6.53
2019-03-26T16:02:57.492Z,9.38
2019-03-26T16:05:23.875Z,13.03
2019-03-26T16:07:50.100Z,10.05
2019-03-26T16:10:16.198Z,8.05
2019-03-26T16:12:42.384Z,9.60
2019-03-26T16:15:08.770Z,8.58
2019-03-26T16:17:36.101Z,10.63
2019-03-26T16:20:05.235Z,7.37
2019-03-26T16:22:31.550Z,4.92
2019-03-26T16:24:57.687Z,7.53
2019-03-26T16:27:24.024Z,6.92
2019-03-26T16:29:50.177Z,13.50
2019-03-26T16:32:16.459Z,11.43
2019-03-26T16:34:42.689Z,8.75
2019-03-26T16:37:08.806Z,11.03
2019-03-26T16:39:35.125Z,8.90
2019-03-26T16:42:01.359Z,6.53
2019-03-26T16:44:27.590Z,9.98
2019-03-26T16:46:53.709Z,9.05
2019-03-26T16:49:19.915Z,10.65
2019-03-26T16:51:46.040Z,9.10
2019-03-26T16:54:12.253Z,8.95
2019-03-26T16:56:38.362Z,9.88
2019-03-26T16:59:04.667Z,8.90
2019-03-26T17:01:30.836Z,14.47
2019-03-26T17:03:57.223Z,10.98
2019-03-26T17:06:23.542Z,8.90
2019-03-26T17:08:49.704Z,7.92
2019-03-26T17:11:16.969Z,9.25
2019-03-26T17:13:44.306Z,8.33
2019-03-26T17:16:10.563Z,6.62
2019-03-26T17:18:37.828Z,11.38
2019-03-26T17:21:04.075Z,10.35
2019-03-26T17:23:30.423Z,16.65
2019-03-26T17:25:56.612Z,12.13
2019-03-26T17:28:22.958Z,12.90
2019-03-26T17:30:49.286Z,18.07
2019-03-26T17:33:15.644Z,16.35
2019-03-26T17:35:41.857Z,10.68
2019-03-26T17:38:08.093Z,7.80
2019-03-26T17:40:34.369Z,11.33
2019-03-26T17:43:00.607Z,14.50
2019-03-26T17:45:26.729Z,7.92
2019-03-26T17:47:52.936Z,17.12
2019-03-26T17:50:20.319Z,10.28
2019-03-26T17:52:46.525Z,12.78
2019-03-26T17:55:12.744Z,11.80
2019-03-26T17:57:39.047Z,13.05
2019-03-26T18:00:08.943Z,12.07
2019-03-26T18:02:35.351Z,10.15
2019-03-26T18:05:02.018Z,12.30
2019-03-26T18:07:28.339Z,12.03
2019-03-26T18:09:54.690Z,8.45
2019-03-26T18:12:30.850Z,14.63
2019-03-26T18:14:49.340Z,11.90
2019-03-26T18:17:15.546Z,10.50
2019-03-26T18:19:41.794Z,15.05
2019-03-26T18:22:08.052Z,11.28
2019-03-26T18:24:34.388Z,14.80
2019-03-26T18:27:00.522Z,11.10
2019-03-26T18:29:26.837Z,10.88
2019-03-26T18:31:53.040Z,10.05
2019-03-26T18:34:19.269Z,13.18
2019-03-26T18:36:45.655Z,12.40
2019-03-26T18:39:12.046Z,15.10
2019-03-26T18:41:38.542Z,16.57
2019-03-26T18:44:04.758Z,13.20
2019-03-26T18:46:30.872Z,14.43
2019-03-26T18:48:57.167Z,12.30
2019-03-26T18:51:24.394Z,14.98
2019-03-26T18:53:50.696Z,18.15
2019-03-26T18:56:16.828Z,12.95
2019-03-26T18:58:43.190Z,13.53
2019-03-26T19:01:09.906Z,13.35
2019-03-26T19:03:36.227Z,16.32
2019-03-26T19:06:02.725Z,10.95
2019-03-26T19:08:28.822Z,13.93
2019-03-26T19:10:55.101Z,11.03
2019-03-26T19:13:21.203Z,12.58
2019-03-26T19:15:47.516Z,14.18
2019-03-26T19:18:13.678Z,13.60
2019-03-26T19:20:39.878Z,14.13
2019-03-26T19:23:06.107Z,12.00
2019-03-26T19:25:32.539Z,14.45
2019-03-26T19:27:58.894Z,15.18
2019-03-26T19:30:25.060Z,14.83
2019-03-26T19:32:51.313Z,13.95
2019-03-26T19:35:17.574Z,11.48
2019-03-26T19:37:43.812Z,12.93
2019-03-26T19:40:10.235Z,15.38
2019-03-26T19:42:36.464Z,15.53
2019-03-26T19:45:03.364Z,13.35
2019-03-26T19:47:29.581Z,17.67
2019-03-26T19:49:55.700Z,15.53
2019-03-26T19:52:21.927Z,13.75
2019-03-26T19:54:48.081Z,11.93
2019-03-26T19:57:14.322Z,12.60
2019-03-26T19:59:41.472Z,18.90
2019-03-26T20:02:07.785Z,17.75
2019-03-26T20:04:35.169Z,17.23
2019-03-26T20:07:01.423Z,17.52
2019-03-26T20:09:27.652Z,21.37
2019-03-26T20:11:53.744Z,17.40
2019-03-26T20:14:20.125Z,16.35
2019-03-26T20:16:46.305Z,22.48
2019-03-26T20:19:12.455Z,22.85
2019-03-26T20:21:38.608Z,34.73
2019-03-26T20:24:05.855Z,25.12
2019-03-26T20:26:32.386Z,20.62
2019-03-26T20:28:59.278Z,23.32
2019-03-26T20:31:25.615Z,20.57
2019-03-26T20:33:52.068Z,21.87
2019-03-26T20:36:19.311Z,19.10
2019-03-26T20:38:45.701Z,19.57
2019-03-26T20:41:12.008Z,21.65
2019-03-26T20:43:39.658Z,18.02
2019-03-26T20:46:05.920Z,27.50
2019-03-26T20:48:32.169Z,19.92
2019-03-26T20:50:58.592Z,23.60
2019-03-26T20:53:24.919Z,29.42
2019-03-26T20:55:54.580Z,21.75
2019-03-26T20:58:19.998Z,20.12
2019-03-26T21:00:46.550Z,28.40
2019-03-26T21:03:13.128Z,26.42
2019-03-26T21:05:39.505Z,29.27
2019-03-26T21:08:06.090Z,28.80
2019-03-26T21:10:32.556Z,20.85
2019-03-26T21:12:59.219Z,11.90
2019-03-26T21:15:25.538Z,14.65
2019-03-26T21:17:51.637Z,10.25
2019-03-26T21:20:17.969Z,11.22
2019-03-26T21:22:44.204Z,9.68
2019-03-26T21:25:10.740Z,16.75
2019-03-26T21:27:36.845Z,13.30
2019-03-26T21:30:11.615Z,17.48
2019-03-26T21:32:37.911Z,13.13
2019-03-26T21:35:05.297Z,21.27
2019-03-26T21:37:31.500Z,18.45
2019-03-26T21:39:57.762Z,19.12
2019-03-26T21:42:23.965Z,17.75
2019-03-26T21:44:50.137Z,21.07
2019-03-26T21:47:16.367Z,22.20
2019-03-26T21:49:42.536Z,18.35
2019-03-26T21:52:08.803Z,19.12
2019-03-26T21:54:35.035Z,22.25
2019-03-26T21:57:01.398Z,22.17
2019-03-26T21:59:28.862Z,22.67
2019-03-26T22:04:27.546Z,20.30
2019-03-26T22:06:53.702Z,21.12
2019-03-26T22:09:20.978Z,23.25
2019-03-26T22:11:50.178Z,20.80
2019-03-26T22:14:18.150Z,22.95
2019-03-26T22:16:43.560Z,23.10
2019-03-26T22:19:09.840Z,26.70
2019-03-26T22:21:36.215Z,23.85
2019-03-26T22:24:02.661Z,24.70
2019-03-26T22:26:28.812Z,35.55
2019-03-26T22:28:55.035Z,26.40
2019-03-26T22:31:21.193Z,28.57
2019-03-26T22:33:47.498Z,31.75
2019-03-26T22:36:13.777Z,30.97
2019-03-26T22:38:40.010Z,30.30
2019-03-26T22:41:06.117Z,31.10
2019-03-26T22:43:32.324Z,36.75
2019-03-26T22:45:58.493Z,30.72
2019-03-26T22:48:28.079Z,33.70
2019-03-26T22:50:54.324Z,29.37
2019-03-26T22:53:20.584Z,28.65
2019-03-26T22:55:46.733Z,27.90
2019-03-26T22:58:12.910Z,22.73
2019-03-26T23:00:39.261Z,30.40
2019-03-26T23:03:07.260Z,27.25
2019-03-26T23:05:33.676Z,26.55
2019-03-26T23:07:59.973Z,26.75
2019-03-26T23:10:26.189Z,32.28
2019-03-26T23:12:52.367Z,32.65
2019-03-26T23:15:21.924Z,44.13
2019-03-26T23:17:48.939Z,37.40
2019-03-26T23:20:15.185Z,33.67
2019-03-26T23:22:41.615Z,38.53
2019-03-26T23:25:09.130Z,31.00
2019-03-26T23:27:35.459Z,32.50
2019-03-26T23:30:04.057Z,30.80
2019-03-26T23:32:30.318Z,38.92
2019-03-26T23:34:56.582Z,29.75
2019-03-26T23:37:22.782Z,33.45
2019-03-26T23:39:48.936Z,33.63
2019-03-26T23:42:15.185Z,32.38
2019-03-26T23:44:41.386Z,36.03
2019-03-26T23:47:07.617Z,34.10
2019-03-26T23:49:34.890Z,35.00
2019-03-26T23:52:01.113Z,36.28
2019-03-26T23:54:27.355Z,37.30
2019-03-26T23:56:53.525Z,31.95
2019-03-26T23:59:19.683Z,36.60
